createdAt,value
2019-03-21T00:04:10.604Z,6.32
2019-03-21T00:10:05.590Z,4.04
2019-03-21T00:16:00.640Z,4.2
2019-03-21T00:21:55.606Z,5.76
2019-03-21T00:27:50.655Z,6.59
2019-03-21T00:33:45.599Z,7.91
2019-03-21T00:39:40.605Z,5.94
2019-03-21T00:45:35.639Z,7.09
2019-03-21T00:51:30.615Z,3.2
2019-03-21T00:57:25.669Z,4.88
2019-03-21T01:03:20.613Z,6.12
2019-03-21T01:09:15.627Z,7.43
2019-03-21T01:15:10.594Z,4.8
2019-03-21T01:21:05.610Z,4.16
2019-03-21T01:27:00.615Z,6.73
2019-03-21T01:32:55.621Z,7.49
2019-03-21T01:38:50.612Z,5.26
2019-03-21T01:44:45.633Z,5.92
2019-03-21T01:50:40.646Z,7.43
2019-03-21T01:56:35.609Z,4.54
2019-03-21T02:02:30.622Z,5.73
2019-03-21T02:08:25.654Z,5.52
2019-03-21T02:14:20.667Z,10.46
2019-03-21T02:20:15.617Z,6.73
2019-03-21T02:26:10.626Z,5.08
2019-03-21T02:32:05.632Z,13.51
2019-03-21T02:38:00.625Z,10.66
2019-03-21T02:43:55.661Z,6.17
2019-03-21T02:49:50.673Z,5.91
2019-03-21T02:55:45.638Z,4.85
2019-03-21T03:01:40.653Z,10.05
2019-03-21T03:07:37.462Z,6.43
2019-03-21T03:13:30.658Z,9.55
2019-03-21T03:19:25.657Z,8.07
2019-03-21T03:25:20.672Z,7.65
2019-03-21T03:31:15.826Z,5.61
2019-03-21T03:37:10.698Z,10.98
2019-03-21T03:43:05.668Z,7.37
2019-03-21T03:49:00.638Z,8.24
2019-03-21T03:54:55.630Z,6.46
2019-03-21T04:00:50.655Z,6.11
2019-03-21T04:06:45.658Z,6.58
2019-03-21T04:12:40.654Z,6.27
2019-03-21T04:18:35.662Z,5.83
2019-03-21T04:24:30.665Z,5.97
2019-03-21T04:30:25.643Z,8.87
2019-03-21T04:36:20.659Z,7.6
2019-03-21T04:42:15.665Z,11.01
2019-03-21T04:48:10.649Z,6.13
2019-03-21T04:54:05.699Z,6.25
2019-03-21T05:00:03.523Z,4.33
2019-03-21T05:05:55.688Z,6.7
2019-03-21T05:11:50.666Z,6.89
2019-03-21T05:17:45.666Z,6.49
2019-03-21T05:23:40.645Z,6.97
2019-03-21T05:29:35.695Z,4.26
2019-03-21T05:35:30.699Z,5.86
2019-03-21T05:41:25.668Z,7.1
2019-03-21T05:47:20.708Z,4.96
2019-03-21T05:53:15.694Z,7.26
2019-03-21T05:59:10.674Z,5.27
2019-03-21T06:05:05.673Z,13.03
2019-03-21T06:11:00.668Z,5.19
2019-03-21T06:16:55.694Z,4.95
2019-03-21T06:22:50.687Z,5.2
2019-03-21T06:28:45.676Z,6.07
2019-03-21T06:34:40.741Z,3.48
2019-03-21T06:40:35.682Z,9.47
2019-03-21T06:46:30.679Z,6.7
2019-03-21T06:52:25.719Z,10.08
2019-03-21T06:58:20.706Z,6.97
2019-03-21T07:04:15.764Z,7.54
2019-03-21T07:10:10.722Z,6.31
2019-03-21T07:16:05.682Z,5.6
2019-03-21T07:22:00.711Z,3.54
2019-03-21T07:27:55.689Z,7.61
2019-03-21T07:33:50.779Z,5.3
2019-03-21T07:39:45.691Z,5.04
2019-03-21T07:45:40.694Z,6.1
2019-03-21T07:51:35.673Z,8.11
2019-03-21T07:57:30.696Z,9.29
2019-03-21T08:03:25.700Z,10.83
2019-03-21T08:09:20.700Z,6.01
2019-03-21T08:15:15.710Z,7.44
2019-03-21T08:21:10.693Z,6.68
2019-03-21T08:27:05.700Z,5.69
2019-03-21T08:33:02.883Z,7.62
2019-03-21T08:38:55.706Z,6.54
2019-03-21T08:44:50.701Z,10.51
2019-03-21T08:50:45.724Z,10.37
2019-03-21T08:56:40.721Z,10.84
2019-03-21T09:02:35.708Z,5.25
2019-03-21T09:08:30.809Z,5.44
2019-03-21T09:14:25.748Z,5.28
2019-03-21T09:20:20.750Z,7.34
2019-03-21T09:26:15.722Z,4.3
2019-03-21T09:32:10.740Z,8.43
2019-03-21T09:38:05.726Z,6.52
2019-03-21T09:44:00.742Z,7.49
2019-03-21T09:49:55.727Z,8.2
2019-03-21T09:55:50.730Z,9.89
2019-03-21T10:01:45.778Z,5.96
2019-03-21T10:07:40.927Z,8.01
2019-03-21T10:13:35.792Z,6.9
2019-03-21T10:19:30.777Z,8.19
2019-03-21T10:25:26.749Z,7.88
2019-03-21T10:31:20.776Z,6.13
2019-03-21T10:37:15.793Z,6.15
2019-03-21T10:43:10.882Z,7.84
2019-03-21T10:49:05.775Z,9.44
2019-03-21T10:55:00.746Z,6.91
2019-03-21T11:00:55.744Z,5.9
2019-03-21T11:06:50.771Z,7.14
2019-03-21T11:12:45.760Z,5.87
2019-03-21T11:18:40.756Z,7.41
2019-03-21T11:24:35.751Z,6.04
2019-03-21T11:30:30.783Z,6.92
2019-03-21T11:36:33.706Z,8.16
2019-03-21T11:42:20.774Z,9.94
2019-03-21T11:48:15.785Z,9.72
2019-03-21T11:54:10.792Z,5.69
2019-03-21T12:00:05.773Z,6.13
2019-03-21T12:06:00.807Z,9.8
2019-03-21T12:11:55.776Z,10.2
2019-03-21T12:17:50.780Z,8.53
2019-03-21T12:23:45.742Z,8.63
2019-03-21T12:29:40.792Z,7.6
2019-03-21T12:35:35.760Z,9.11
2019-03-21T12:41:30.782Z,11.54
2019-03-21T12:47:30.983Z,8.21
2019-03-21T12:53:20.794Z,8.78
2019-03-21T12:59:15.807Z,10.48
2019-03-21T13:05:10.786Z,10.27
2019-03-21T13:11:05.786Z,8.39
2019-03-21T13:17:00.784Z,13.1
2019-03-21T13:22:55.810Z,6.61
2019-03-21T13:28:50.799Z,11.94
2019-03-21T13:34:45.811Z,5.54
2019-03-21T13:40:40.893Z,4.59
2019-03-21T13:46:35.810Z,10.34
2019-03-21T13:52:30.804Z,6.06
2019-03-21T13:58:25.830Z,5.86
2019-03-21T14:04:20.803Z,9.81
2019-03-21T14:10:15.791Z,9.23
2019-03-21T14:16:10.860Z,6.78
2019-03-21T14:22:06.430Z,7.23
2019-03-21T14:28:00.873Z,6.48
2019-03-21T14:33:55.811Z,6.1
2019-03-21T14:39:50.829Z,11.1
2019-03-21T14:45:45.858Z,13.56
2019-03-21T14:51:40.804Z,6.2
2019-03-21T14:57:35.832Z,8.51
2019-03-21T15:03:30.825Z,5.07
2019-03-21T15:09:25.875Z,9.78
2019-03-21T15:15:20.845Z,10.51
2019-03-21T15:21:15.907Z,16.17
2019-03-21T15:27:10.848Z,9.13
2019-03-21T15:33:05.825Z,5.66
2019-03-21T15:39:00.843Z,11.91
2019-03-21T15:45:07.345Z,9.03
2019-03-21T15:50:50.881Z,10.33
2019-03-21T15:56:45.889Z,11.83
2019-03-21T16:02:40.841Z,17.71
2019-03-21T16:08:35.835Z,16.85
2019-03-21T16:14:30.859Z,12.24
2019-03-21T16:20:25.861Z,8.23
2019-03-21T16:26:20.871Z,13.88
2019-03-21T16:32:15.869Z,18.1
2019-03-21T16:38:10.859Z,8.93
2019-03-21T16:44:05.943Z,10.67
2019-03-21T16:50:00.866Z,11.84
2019-03-21T16:55:55.853Z,13.29
2019-03-21T17:01:50.885Z,9.23
2019-03-21T17:07:45.867Z,23.48
2019-03-21T17:13:40.893Z,7.83
2019-03-21T17:19:37.286Z,11.42
2019-03-21T17:25:31.416Z,10.59
2019-03-21T17:31:25.881Z,14.43
2019-03-21T17:37:20.900Z,11.13
2019-03-21T17:43:15.893Z,9.41
2019-03-21T17:49:10.932Z,15.26
2019-03-21T17:55:05.898Z,15.2
2019-03-21T18:01:00.924Z,11.31
2019-03-21T18:06:55.918Z,14.02
2019-03-21T18:12:50.917Z,12.77
2019-03-21T18:18:45.891Z,10.5
2019-03-21T18:24:52.961Z,10.85
2019-03-21T18:30:35.934Z,18.88
2019-03-21T18:36:30.896Z,13.91
2019-03-21T18:42:25.914Z,21.95
2019-03-21T18:48:20.905Z,22.74
2019-03-21T18:54:15.907Z,21.08
2019-03-21T19:00:10.927Z,16.98
2019-03-21T19:06:05.947Z,14.46
2019-03-21T19:12:00.901Z,16.53
2019-03-21T19:17:55.902Z,16.53
2019-03-21T19:24:02.589Z,18.13
2019-03-21T19:29:45.923Z,13.5
2019-03-21T19:35:42.112Z,18.14
2019-03-21T19:41:35.955Z,16.13
2019-03-21T19:47:30.960Z,12.72
2019-03-21T19:53:25.945Z,11.69
2019-03-21T19:59:20.949Z,13.46
2019-03-21T20:05:16.006Z,11.12
2019-03-21T20:11:10.918Z,16.69
2019-03-21T20:17:05.912Z,15.11
2019-03-21T20:23:00.960Z,10.07
2019-03-21T20:28:55.997Z,8.6
2019-03-21T20:34:50.925Z,9.93
2019-03-21T20:40:45.957Z,9.81
2019-03-21T20:46:40.968Z,7.61
2019-03-21T20:52:35.945Z,7.25
2019-03-21T20:58:30.938Z,11.81
2019-03-21T21:04:26.013Z,13.38
2019-03-21T21:10:20.933Z,18.27
2019-03-21T21:16:15.957Z,16.13
2019-03-21T21:22:10.966Z,10.42
2019-03-21T21:28:05.971Z,8.53
2019-03-21T21:34:00.965Z,8.05
2019-03-21T21:39:55.977Z,5.61
2019-03-21T21:45:50.943Z,6.89
2019-03-21T21:51:45.969Z,7.48
2019-03-21T21:57:40.954Z,7.13
2019-03-21T22:03:35.955Z,7.7
2019-03-21T22:09:30.952Z,7.52
2019-03-21T22:15:25.958Z,7.22
2019-03-21T22:21:20.960Z,9.08
2019-03-21T22:27:15.991Z,11.7
2019-03-21T22:33:11.065Z,10.43
2019-03-21T22:39:06.002Z,10.91
2019-03-21T22:45:01.030Z,15.03
2019-03-21T22:50:55.962Z,7.61
2019-03-21T22:56:50.967Z,7.81
2019-03-21T23:02:45.978Z,8.08
2019-03-21T23:08:40.992Z,8.78
2019-03-21T23:14:35.988Z,12.36
2019-03-21T23:20:31.044Z,5.37
2019-03-21T23:26:26.008Z,7.45
2019-03-21T23:32:20.992Z,6.47
2019-03-21T23:38:15.997Z,7.28
2019-03-21T23:44:10.990Z,11.04
2019-03-21T23:50:05.994Z,6.87
2019-03-21T23:56:03.141Z,4.15
